createdAt,value
2022-10-01T00:04:59.299Z,9.85
2022-10-01T00:10:05.053Z,13.10
2022-10-01T00:15:13.319Z,11.00
2022-10-01T00:20:18.320Z,13.75
2022-10-01T00:25:25.480Z,14.43
2022-10-01T00:30:29.418Z,12.02
2022-10-01T00:35:33.349Z,16.85
2022-10-01T00:40:38.737Z,16.80
2022-10-01T00:45:42.735Z,13.27
2022-10-01T00:50:49.200Z,13.38
2022-10-01T00:55:56.695Z,8.93
2022-10-01T01:01:00.844Z,13.57
2022-10-01T01:06:08.204Z,11.07
2022-10-01T01:11:19.551Z,11.48
2022-10-01T01:16:28.084Z,10.70
2022-10-01T01:21:33.500Z,13.75
2022-10-01T01:26:47.156Z,13.27
2022-10-01T01:31:53.308Z,11.93
2022-10-01T01:42:07.611Z,10.02
2022-10-01T01:47:13.899Z,12.65
2022-10-01T01:52:18.853Z,10.90
2022-10-01T01:57:22.866Z,11.85
2022-10-01T02:02:30.379Z,15.05
2022-10-01T02:07:46.663Z,10.35
2022-10-01T02:18:05.120Z,14.27
2022-10-01T02:23:11.100Z,10.23
2022-10-01T02:28:18.280Z,10.10
2022-10-01T02:33:26.439Z,11.05
2022-10-01T02:38:30.883Z,12.95
2022-10-01T02:43:42.761Z,10.18
2022-10-01T02:48:48.829Z,10.02
2022-10-01T02:53:56.843Z,10.45
2022-10-01T02:59:00.769Z,15.15
2022-10-01T03:04:06.100Z,12.43
2022-10-01T03:09:10.032Z,16.57
2022-10-01T03:14:13.938Z,11.68
2022-10-01T03:19:19.322Z,9.88
2022-10-01T03:24:23.331Z,9.20
2022-10-01T03:29:27.973Z,12.20
2022-10-01T03:34:33.368Z,10.63
2022-10-01T03:39:37.380Z,13.20
2022-10-01T03:44:41.320Z,12.75
2022-10-01T03:49:46.629Z,9.88
2022-10-01T03:54:50.536Z,11.67
2022-10-01T03:59:54.491Z,17.98
2022-10-01T04:04:59.842Z,15.27
2022-10-01T04:10:03.896Z,13.23
2022-10-01T04:15:08.622Z,15.10
2022-10-01T04:20:13.925Z,12.35
2022-10-01T04:25:18.205Z,21.10
2022-10-01T04:30:22.769Z,19.30
2022-10-01T04:35:28.643Z,24.38
2022-10-01T04:40:33.523Z,13.05
2022-10-01T04:45:37.638Z,19.20
2022-10-01T04:50:43.294Z,22.05
2022-10-01T04:55:47.490Z,22.48
2022-10-01T05:00:51.772Z,16.77
2022-10-01T05:05:57.142Z,14.65
2022-10-01T05:11:01.539Z,10.30
2022-10-01T05:16:05.646Z,11.38
2022-10-01T05:21:11.942Z,18.02
2022-10-01T05:26:15.880Z,14.27
2022-10-01T05:31:19.903Z,11.30
2022-10-01T05:36:25.273Z,15.00
2022-10-01T05:41:29.167Z,9.53
2022-10-01T05:46:33.103Z,9.32
2022-10-01T05:51:38.430Z,10.05
2022-10-01T05:56:42.979Z,10.38
2022-10-01T06:01:47.062Z,11.35
2022-10-01T06:06:52.460Z,14.52
2022-10-01T06:11:56.461Z,15.02
2022-10-01T06:17:00.399Z,9.20
2022-10-01T06:22:05.667Z,12.60
2022-10-01T06:27:10.483Z,13.80
2022-10-01T06:32:19.756Z,23.03
2022-10-01T06:37:25.273Z,18.60
2022-10-01T06:42:29.207Z,9.82
2022-10-01T06:47:33.107Z,15.02
2022-10-01T06:52:50.875Z,15.98
2022-10-01T06:57:58.875Z,11.85
2022-10-01T07:03:03.259Z,24.17
2022-10-01T07:08:08.976Z,24.08
2022-10-01T07:18:18.081Z,66.07
2022-10-01T07:23:24.500Z,41.30
2022-10-01T07:28:28.524Z,25.40
2022-10-01T07:33:32.505Z,19.10
2022-10-01T07:38:37.830Z,12.48
2022-10-01T07:48:47.388Z,21.65
2022-10-01T07:53:52.719Z,12.00
2022-10-01T08:04:00.406Z,20.17
2022-10-01T08:09:07.627Z,30.75
2022-10-01T08:14:11.516Z,58.33
2022-10-01T08:19:15.592Z,15.75
2022-10-01T08:24:21.249Z,10.43
2022-10-01T08:29:25.158Z,14.18
2022-10-01T08:34:29.199Z,15.73
2022-10-01T08:39:35.024Z,14.63
2022-10-01T08:44:43.481Z,16.83
2022-10-01T08:49:51.011Z,22.25
2022-10-01T08:54:58.356Z,21.27
2022-10-01T09:00:07.983Z,11.02
2022-10-01T09:05:22.290Z,23.10
2022-10-01T09:10:45.071Z,18.45
2022-10-01T09:15:52.503Z,25.50
2022-10-01T09:20:58.452Z,14.85
2022-10-01T09:26:03.942Z,13.68
2022-10-01T09:31:13.758Z,15.07
2022-10-01T09:36:19.831Z,16.38
2022-10-01T09:41:25.228Z,16.88
2022-10-01T09:46:30.532Z,16.60
2022-10-01T09:51:40.139Z,11.77
2022-10-01T09:56:49.605Z,14.18
2022-10-01T10:01:56.438Z,10.25
2022-10-01T10:07:02.471Z,12.88
2022-10-01T10:12:08.404Z,14.35
2022-10-01T10:17:16.819Z,12.88
2022-10-01T10:22:25.110Z,8.68
2022-10-01T10:27:31.758Z,13.63
2022-10-01T10:32:35.820Z,12.70
2022-10-01T10:37:46.845Z,16.00
2022-10-01T10:42:53.671Z,10.38
2022-10-01T10:47:58.131Z,9.80
2022-10-01T10:53:13.734Z,19.00
2022-10-01T10:58:19.292Z,18.65
2022-10-01T11:03:26.011Z,9.52
2022-10-01T11:08:30.079Z,10.98
2022-10-01T11:13:52.203Z,21.83
2022-10-01T11:19:05.738Z,8.85
2022-10-01T11:24:21.299Z,17.27
2022-10-01T11:29:36.115Z,8.25
2022-10-01T11:35:04.774Z,9.68
2022-10-01T11:40:15.951Z,11.05
2022-10-01T11:45:24.482Z,12.07
2022-10-01T11:50:30.302Z,11.85
2022-10-01T11:55:53.140Z,6.30
2022-10-01T12:01:06.542Z,8.25
2022-10-01T12:06:14.892Z,8.90
2022-10-01T12:11:21.830Z,6.57
2022-10-01T12:16:32.349Z,6.88
2022-10-01T12:21:39.463Z,8.07
2022-10-01T12:26:48.778Z,6.78
2022-10-01T12:31:58.840Z,14.88
2022-10-01T12:37:10.671Z,10.75
2022-10-01T12:42:31.309Z,9.20
2022-10-01T12:47:44.488Z,12.63
2022-10-01T12:52:55.670Z,10.40
2022-10-01T12:58:05.191Z,6.78
2022-10-01T13:03:50.591Z,5.13
2022-10-01T13:09:03.543Z,7.50
2022-10-01T13:14:08.810Z,7.55
2022-10-01T13:19:17.402Z,6.05
2022-10-01T13:24:27.389Z,7.68
2022-10-01T13:29:45.323Z,6.90
2022-10-01T13:34:49.215Z,9.73
2022-10-01T13:39:54.517Z,11.40
2022-10-01T13:45:00.951Z,6.63
2022-10-01T13:50:07.208Z,8.45
2022-10-01T13:55:26.499Z,11.43
2022-10-01T14:00:30.531Z,14.70
2022-10-01T14:05:38.053Z,11.50
2022-10-01T14:11:04.722Z,7.82
2022-10-01T14:16:08.934Z,7.30
2022-10-01T14:21:28.657Z,7.57
2022-10-01T14:26:38.697Z,5.68
2022-10-01T14:31:52.352Z,5.85
2022-10-01T14:36:56.946Z,8.60
2022-10-01T14:42:16.594Z,9.00
2022-10-01T14:47:22.410Z,9.88
2022-10-01T14:52:28.984Z,9.90
2022-10-01T14:57:36.290Z,8.10
2022-10-01T15:02:46.039Z,7.30
2022-10-01T15:07:50.392Z,10.30
2022-10-01T15:12:56.690Z,8.50
2022-10-01T15:18:00.604Z,8.63
2022-10-01T15:23:06.517Z,11.52
2022-10-01T15:28:16.957Z,12.68
2022-10-01T15:33:28.011Z,10.18
2022-10-01T15:38:33.197Z,15.13
2022-10-01T15:43:39.238Z,12.95
2022-10-01T15:48:43.212Z,11.65
2022-10-01T15:53:47.427Z,13.13
2022-10-01T15:58:55.554Z,17.27
2022-10-01T16:04:05.259Z,16.52
2022-10-01T16:09:13.862Z,13.75
2022-10-01T16:14:42.327Z,13.75
2022-10-01T16:19:47.086Z,19.75
2022-10-01T16:24:52.360Z,14.10
2022-10-01T16:30:04.175Z,13.00
2022-10-01T16:35:17.800Z,19.73
2022-10-01T16:40:23.928Z,13.93
2022-10-01T16:45:33.822Z,13.23
2022-10-01T16:50:38.100Z,17.63
2022-10-01T16:55:42.268Z,20.23
2022-10-01T17:00:47.802Z,14.27
2022-10-01T17:05:51.698Z,15.88
2022-10-01T17:10:59.221Z,14.10
2022-10-01T17:16:06.695Z,11.00
2022-10-01T17:21:10.987Z,11.68
2022-10-01T17:26:14.885Z,12.52
2022-10-01T17:31:20.259Z,14.82
2022-10-01T17:36:24.151Z,12.02
2022-10-01T17:41:28.086Z,14.77
2022-10-01T17:46:33.606Z,13.18
2022-10-01T17:56:42.079Z,9.52
2022-10-01T18:01:47.469Z,9.23
2022-10-01T18:06:52.652Z,13.25
2022-10-01T18:11:56.484Z,7.25
2022-10-01T18:17:01.892Z,8.82
2022-10-01T18:22:13.538Z,13.07
2022-10-01T18:27:17.969Z,10.38
2022-10-01T18:32:25.407Z,8.18
2022-10-01T18:37:39.038Z,13.48
2022-10-01T18:42:48.090Z,12.35
2022-10-01T18:48:04.674Z,12.77
2022-10-01T18:53:31.023Z,12.02
2022-10-01T18:59:00.531Z,10.90
2022-10-01T19:04:25.822Z,8.77
2022-10-01T19:09:36.491Z,12.27
2022-10-01T19:14:52.655Z,12.20
2022-10-01T19:20:14.981Z,10.38
2022-10-01T19:25:23.419Z,11.55
2022-10-01T19:30:29.827Z,9.57
2022-10-01T19:35:39.475Z,13.15
2022-10-01T19:40:44.874Z,6.95
2022-10-01T19:45:52.691Z,11.45
2022-10-01T19:51:03.315Z,9.13
2022-10-01T19:56:07.868Z,9.23
2022-10-01T20:01:17.357Z,6.85
2022-10-01T20:06:26.862Z,5.25
2022-10-01T20:11:32.249Z,8.70
2022-10-01T20:16:40.907Z,7.50
2022-10-01T20:21:53.471Z,8.00
2022-10-01T20:27:06.323Z,6.22
2022-10-01T20:32:15.226Z,7.15
2022-10-01T20:37:35.188Z,6.57
2022-10-01T20:42:41.554Z,7.18
2022-10-01T20:47:50.239Z,9.98
2022-10-01T20:53:04.477Z,7.10
2022-10-01T20:58:14.414Z,5.55
2022-10-01T21:03:23.419Z,11.52
2022-10-01T21:08:47.401Z,5.97
2022-10-01T21:13:57.033Z,11.95
2022-10-01T21:19:08.308Z,6.55
2022-10-01T21:24:35.670Z,7.00
2022-10-01T21:29:51.394Z,10.07
2022-10-01T21:35:01.781Z,10.07
2022-10-01T21:40:16.423Z,15.73
2022-10-01T21:45:25.005Z,11.93
2022-10-01T21:50:39.739Z,14.90
2022-10-01T21:55:58.933Z,28.70
2022-10-01T22:01:11.293Z,62.13
2022-10-01T22:06:19.472Z,106.88
2022-10-01T22:11:26.682Z,156.07
2022-10-01T22:16:33.793Z,271.33
2022-10-01T22:21:40.630Z,333.55
2022-10-01T22:26:48.790Z,349.35
2022-10-01T22:31:57.536Z,329.35
2022-10-01T22:37:04.621Z,332.90
2022-10-01T22:42:12.692Z,337.40
2022-10-01T22:47:31.447Z,367.83
2022-10-01T22:52:39.339Z,394.08
2022-10-01T22:58:03.591Z,396.27
2022-10-01T23:03:15.708Z,377.77
2022-10-01T23:08:24.841Z,369.55
2022-10-01T23:13:38.151Z,378.83
2022-10-01T23:18:49.670Z,395.08
2022-10-01T23:24:00.334Z,399.17
2022-10-01T23:29:17.275Z,409.58
2022-10-01T23:34:26.477Z,418.15
2022-10-01T23:39:42.294Z,404.33
2022-10-01T23:44:51.063Z,401.00
2022-10-01T23:49:56.876Z,398.42
2022-10-01T23:55:19.003Z,396.75
